Terminal Aerodrome Forecast
Issued by NWS Twin Cities, MN

Home | Current Version | Previous Version | Text Only | Print | Product List | Glossary On
Versions: 1 2 3 4 5 6 7 8 9 10 11 12 13
000
FTUS43 KMPX 200922 AAA
TAFSTC
TAF AMD
KSTC 200922Z 2009/2106 27004KT 2SM BR SCT250
      TEMPO 2009/2012 1/2SM FG
     FM201400 25003KT P6SM OVC100=

USA.gov is the U.S. government's official web portal to all federal, state and local government web resources and services.